createdAt,value
2023-04-08T00:02:28.654Z,4.14
2023-04-08T00:05:00.109Z,4.13
2023-04-08T00:07:32.143Z,4.10
2023-04-08T00:10:03.085Z,4.07
2023-04-08T00:12:35.281Z,4.06
2023-04-08T00:15:07.385Z,4.06
2023-04-08T00:17:39.030Z,4.09
2023-04-08T00:20:11.728Z,4.11
2023-04-08T00:22:42.882Z,4.13
2023-04-08T00:25:14.071Z,4.14
2023-04-08T00:27:45.153Z,4.16
2023-04-08T00:30:16.490Z,4.19
2023-04-08T00:32:47.615Z,4.20
2023-04-08T00:35:18.929Z,4.22
2023-04-08T00:37:51.294Z,4.24
2023-04-08T00:40:22.368Z,4.24
2023-04-08T00:42:53.401Z,4.25
2023-04-08T00:45:24.309Z,4.25
2023-04-08T00:47:55.437Z,4.26
2023-04-08T00:50:25.035Z,4.27
2023-04-08T00:52:56.253Z,4.26
2023-04-08T00:55:27.436Z,4.25
2023-04-08T00:57:59.423Z,4.24
2023-04-08T01:00:32.612Z,4.22
2023-04-08T01:03:11.801Z,4.21
2023-04-08T01:05:55.586Z,4.19
2023-04-08T01:08:31.531Z,4.18
2023-04-08T01:11:05.141Z,4.18
2023-04-08T01:13:41.623Z,4.18
2023-04-08T01:16:14.538Z,4.18
2023-04-08T01:18:47.944Z,4.20
2023-04-08T01:21:21.781Z,4.20
2023-04-08T01:24:00.711Z,4.20
2023-04-08T01:26:32.669Z,4.20
2023-04-08T01:29:05.993Z,4.19
2023-04-08T01:31:40.510Z,4.19
2023-04-08T01:34:15.174Z,4.19
2023-04-08T01:36:48.148Z,4.18
2023-04-08T01:39:21.655Z,4.19
2023-04-08T01:41:55.358Z,4.20
2023-04-08T01:44:27.637Z,4.21
2023-04-08T01:46:59.549Z,4.22
2023-04-08T01:49:32.094Z,4.24
2023-04-08T01:52:03.889Z,4.24
2023-04-08T01:54:36.021Z,4.25
2023-04-08T01:57:09.890Z,4.26
2023-04-08T01:59:43.148Z,4.25
2023-04-08T02:02:16.445Z,4.22
2023-04-08T02:04:48.063Z,4.21
2023-04-08T02:07:19.834Z,4.21
2023-04-08T02:09:51.109Z,4.21
2023-04-08T02:12:22.302Z,4.19
2023-04-08T02:14:51.854Z,4.19
2023-04-08T02:17:30.980Z,4.15
2023-04-08T02:20:08.493Z,4.13
2023-04-08T02:22:46.139Z,4.13
2023-04-08T02:25:21.761Z,4.10
2023-04-08T02:27:53.501Z,4.08
2023-04-08T02:30:29.391Z,4.06
2023-04-08T02:33:02.914Z,4.05
2023-04-08T02:35:35.085Z,4.05
2023-04-08T02:38:05.997Z,4.06
2023-04-08T02:40:37.182Z,4.08
2023-04-08T02:43:08.096Z,4.10
2023-04-08T02:45:42.918Z,4.12
2023-04-08T02:48:13.975Z,4.14
2023-04-08T02:50:43.517Z,4.15
2023-04-08T02:53:14.532Z,4.14
2023-04-08T02:55:45.727Z,4.16
2023-04-08T02:58:17.845Z,4.17
2023-04-08T03:00:47.619Z,4.19
2023-04-08T03:03:18.824Z,4.19
2023-04-08T03:05:50.097Z,4.18
2023-04-08T03:08:21.182Z,4.17
2023-04-08T03:10:52.387Z,4.18
2023-04-08T03:13:23.491Z,4.18
2023-04-08T03:15:54.527Z,4.18
2023-04-08T03:18:25.682Z,4.19
2023-04-08T03:20:56.547Z,4.19
2023-04-08T03:23:27.661Z,4.21
2023-04-08T03:25:58.552Z,4.22
2023-04-08T03:28:28.114Z,4.22
2023-04-08T03:31:00.840Z,4.21
2023-04-08T03:33:32.143Z,4.21
2023-04-08T03:36:03.493Z,4.21
2023-04-08T03:38:34.527Z,4.22
2023-04-08T03:41:05.540Z,4.23
2023-04-08T03:43:37.496Z,4.23
2023-04-08T03:46:09.485Z,4.20
2023-04-08T03:48:41.021Z,4.19
2023-04-08T03:51:12.228Z,4.18
2023-04-08T03:53:41.840Z,4.18
2023-04-08T03:56:13.693Z,4.17
2023-04-08T03:58:44.756Z,4.20
2023-04-08T04:01:14.576Z,4.20
2023-04-08T04:03:46.046Z,4.18
2023-04-08T04:06:17.175Z,4.18
2023-04-08T04:08:48.301Z,4.20
2023-04-08T04:11:19.469Z,4.20
2023-04-08T04:13:50.442Z,4.19
2023-04-08T04:16:21.589Z,4.19
2023-04-08T04:18:53.768Z,4.17
2023-04-08T04:21:25.186Z,4.14
2023-04-08T04:23:56.340Z,4.13
2023-04-08T04:26:27.406Z,4.14
2023-04-08T04:28:58.583Z,4.16
2023-04-08T04:31:29.651Z,4.18
2023-04-08T04:33:59.066Z,4.18
2023-04-08T04:36:31.535Z,4.18
2023-04-08T04:39:02.744Z,4.17
2023-04-08T04:41:35.380Z,4.17
2023-04-08T04:44:06.624Z,4.17
2023-04-08T04:46:36.130Z,4.16
2023-04-08T04:49:07.464Z,4.12
2023-04-08T04:51:38.485Z,4.13
2023-04-08T04:54:09.628Z,4.15
2023-04-08T04:56:39.132Z,4.17
2023-04-08T04:59:10.114Z,4.15
2023-04-08T05:01:41.245Z,4.17
2023-04-08T05:04:12.560Z,4.18
2023-04-08T05:06:43.641Z,4.19
2023-04-08T05:09:14.965Z,4.20
2023-04-08T05:11:44.582Z,4.21
2023-04-08T05:14:15.784Z,4.21
2023-04-08T05:16:47.086Z,4.21
2023-04-08T05:19:18.277Z,4.22
2023-04-08T05:21:49.419Z,4.25
2023-04-08T05:24:20.412Z,4.27
2023-04-08T05:26:53.382Z,4.26
2023-04-08T05:29:24.332Z,4.29
2023-04-08T05:31:56.490Z,4.31
2023-04-08T05:34:27.763Z,4.33
2023-04-08T05:36:58.725Z,4.35
2023-04-08T05:39:29.765Z,4.36
2023-04-08T05:42:00.961Z,4.38
2023-04-08T05:44:30.456Z,4.40
2023-04-08T05:47:01.535Z,4.39
2023-04-08T05:49:34.620Z,4.42
2023-04-08T05:52:05.849Z,4.47
2023-04-08T05:54:36.837Z,4.47
2023-04-08T05:57:10.261Z,4.47
2023-04-08T05:59:41.684Z,4.48
2023-04-08T06:02:11.225Z,4.50
2023-04-08T06:04:42.385Z,4.49
2023-04-08T06:07:13.499Z,4.52
2023-04-08T06:09:45.204Z,4.54
2023-04-08T06:12:16.474Z,4.54
2023-04-08T06:14:46.029Z,4.55
2023-04-08T06:17:17.024Z,4.53
2023-04-08T06:19:46.531Z,4.54
2023-04-08T06:22:17.461Z,4.55
2023-04-08T06:24:49.806Z,4.58
2023-04-08T06:27:21.103Z,4.61
2023-04-08T06:29:52.186Z,4.64
2023-04-08T06:32:23.227Z,4.67
2023-04-08T06:34:54.190Z,4.66
2023-04-08T06:37:24.490Z,4.69
2023-04-08T06:39:55.493Z,4.70
2023-04-08T06:42:27.365Z,4.73
2023-04-08T06:44:58.659Z,4.77
2023-04-08T06:47:30.021Z,4.86
2023-04-08T06:50:01.035Z,4.94
2023-04-08T06:52:32.207Z,5.02
2023-04-08T06:55:03.045Z,5.08
2023-04-08T06:57:34.346Z,5.12
2023-04-08T07:00:05.778Z,5.11
2023-04-08T07:02:37.319Z,5.11
2023-04-08T07:05:09.837Z,5.10
2023-04-08T07:07:40.982Z,5.09
2023-04-08T07:10:11.320Z,5.11
2023-04-08T07:12:42.466Z,5.10
2023-04-08T07:15:14.081Z,5.12
2023-04-08T07:17:45.191Z,5.14
2023-04-08T07:20:17.228Z,5.15
2023-04-08T07:22:48.322Z,5.15
2023-04-08T07:25:18.071Z,5.13
2023-04-08T07:27:49.017Z,5.06
2023-04-08T07:30:20.761Z,5.05
2023-04-08T07:32:52.321Z,5.05
2023-04-08T07:35:25.504Z,5.04
2023-04-08T07:37:57.748Z,5.02
2023-04-08T07:40:28.974Z,4.98
2023-04-08T07:42:58.417Z,4.95
2023-04-08T07:45:29.452Z,4.93
2023-04-08T07:48:00.396Z,4.95
2023-04-08T07:50:33.430Z,5.01
2023-04-08T07:53:02.872Z,5.06
2023-04-08T07:55:37.377Z,5.08
2023-04-08T07:58:08.525Z,5.14
2023-04-08T08:00:40.914Z,5.16
2023-04-08T08:03:12.331Z,5.15
2023-04-08T08:05:41.857Z,5.12
2023-04-08T08:08:12.839Z,5.09
2023-04-08T08:10:43.850Z,5.09
2023-04-08T08:13:17.109Z,5.06
2023-04-08T08:15:48.095Z,5.03
2023-04-08T08:18:17.679Z,4.97
2023-04-08T08:20:48.703Z,4.93
2023-04-08T08:23:19.718Z,4.91
2023-04-08T08:25:50.620Z,4.90
2023-04-08T08:28:21.646Z,4.93
2023-04-08T08:30:52.693Z,4.99
2023-04-08T08:33:24.038Z,5.05
2023-04-08T08:35:55.726Z,5.15
2023-04-08T08:38:27.219Z,5.19
2023-04-08T08:40:59.492Z,5.27
2023-04-08T08:43:33.410Z,5.36
2023-04-08T08:46:04.641Z,5.46
2023-04-08T08:48:38.767Z,5.45
2023-04-08T08:51:12.653Z,5.45
2023-04-08T08:53:45.676Z,5.43
2023-04-08T08:56:18.786Z,5.41
2023-04-08T08:58:50.311Z,5.46
2023-04-08T09:01:38.791Z,5.55
2023-04-08T09:04:13.160Z,5.61
2023-04-08T09:06:44.853Z,5.65
2023-04-08T09:09:16.413Z,5.70
2023-04-08T09:11:48.687Z,5.75
2023-04-08T09:14:25.632Z,5.78
2023-04-08T09:16:56.886Z,5.73
2023-04-08T09:19:26.786Z,5.67
2023-04-08T09:22:34.549Z,5.59
2023-04-08T09:25:26.505Z,5.50
2023-04-08T09:27:57.937Z,5.43
2023-04-08T09:30:30.063Z,5.36
2023-04-08T09:33:01.498Z,5.31
2023-04-08T09:35:32.786Z,5.32
2023-04-08T09:38:03.738Z,5.31
2023-04-08T09:40:35.386Z,5.38
2023-04-08T09:43:10.523Z,5.44
2023-04-08T09:45:44.057Z,5.55
2023-04-08T09:48:24.285Z,5.68
2023-04-08T09:50:56.753Z,5.82
2023-04-08T09:53:35.596Z,5.89
2023-04-08T09:56:13.012Z,5.87
2023-04-08T09:58:44.384Z,5.92
2023-04-08T10:01:18.296Z,5.95
2023-04-08T10:03:55.437Z,5.96
2023-04-08T10:06:29.653Z,5.97
2023-04-08T10:09:02.774Z,5.99
2023-04-08T10:11:34.806Z,6.05
2023-04-08T10:14:05.918Z,6.12
2023-04-08T10:16:36.962Z,6.18
2023-04-08T10:19:42.191Z,6.24
2023-04-08T10:22:43.839Z,6.34
2023-04-08T10:25:34.599Z,6.38
2023-04-08T10:28:28.847Z,6.35
2023-04-08T10:31:00.314Z,6.30
2023-04-08T10:33:47.902Z,6.26
2023-04-08T10:36:19.167Z,6.23
2023-04-08T10:38:48.761Z,6.16
2023-04-08T10:41:27.281Z,6.15
2023-04-08T10:43:58.416Z,6.14
2023-04-08T10:46:38.387Z,6.11
2023-04-08T10:49:09.541Z,6.07
2023-04-08T10:51:41.544Z,6.09
2023-04-08T10:54:13.819Z,6.14
2023-04-08T10:56:49.502Z,6.17
2023-04-08T10:59:30.732Z,6.22
2023-04-08T11:02:02.641Z,6.29
2023-04-08T11:04:34.167Z,6.38
2023-04-08T11:07:08.572Z,6.44
2023-04-08T11:09:41.210Z,6.46
2023-04-08T11:12:13.614Z,6.52
2023-04-08T11:14:49.607Z,6.63
2023-04-08T11:17:21.534Z,6.72
2023-04-08T11:19:53.608Z,6.86
2023-04-08T11:22:25.743Z,6.99
2023-04-08T11:24:57.354Z,7.00
2023-04-08T11:27:28.726Z,6.96
2023-04-08T11:30:00.548Z,6.88
2023-04-08T11:32:32.378Z,6.83
2023-04-08T11:35:05.789Z,6.83
2023-04-08T11:37:44.911Z,6.80
2023-04-08T11:40:21.681Z,6.79
2023-04-08T11:42:53.203Z,6.72
2023-04-08T11:45:24.752Z,6.65
2023-04-08T11:47:55.871Z,6.71
2023-04-08T11:50:25.853Z,6.79
2023-04-08T11:52:57.100Z,6.80
2023-04-08T11:55:29.509Z,6.90
2023-04-08T11:58:06.244Z,7.13
2023-04-08T12:00:37.593Z,7.31
2023-04-08T12:03:08.917Z,7.42
2023-04-08T12:05:40.088Z,7.50
2023-04-08T12:08:09.485Z,7.45
2023-04-08T12:10:40.779Z,7.45
2023-04-08T12:13:11.730Z,7.50
2023-04-08T12:15:42.881Z,7.53
2023-04-08T12:18:13.918Z,7.49
2023-04-08T12:20:45.219Z,7.42
2023-04-08T12:23:16.639Z,7.44
2023-04-08T12:25:47.665Z,7.30
2023-04-08T12:28:17.145Z,7.24
2023-04-08T12:30:46.940Z,7.13
2023-04-08T12:33:17.942Z,6.99
2023-04-08T12:35:47.605Z,6.88
2023-04-08T12:38:18.831Z,6.83
2023-04-08T12:40:50.342Z,6.91
2023-04-08T12:43:22.085Z,6.98
2023-04-08T12:45:53.513Z,7.04
2023-04-08T12:48:24.373Z,7.07
2023-04-08T12:50:55.175Z,7.06
2023-04-08T12:53:26.194Z,7.00
2023-04-08T12:55:57.618Z,6.97
2023-04-08T12:58:29.025Z,6.99
2023-04-08T13:01:00.105Z,7.02
2023-04-08T13:03:32.018Z,7.00
2023-04-08T13:06:03.259Z,6.99
2023-04-08T13:08:34.456Z,7.05
2023-04-08T13:11:05.694Z,7.15
2023-04-08T13:13:36.987Z,7.26
2023-04-08T13:16:06.375Z,7.36
2023-04-08T13:18:37.744Z,7.35
2023-04-08T13:21:09.593Z,7.37
2023-04-08T13:23:40.533Z,7.35
2023-04-08T13:26:09.946Z,7.30
2023-04-08T13:28:55.959Z,7.30
2023-04-08T13:31:28.339Z,7.33
2023-04-08T13:33:59.464Z,7.38
2023-04-08T13:36:31.631Z,7.44
2023-04-08T13:39:02.710Z,7.46
2023-04-08T13:41:35.048Z,7.56
2023-04-08T13:44:07.220Z,7.65
2023-04-08T13:46:38.171Z,7.67
2023-04-08T13:49:09.601Z,7.64
2023-04-08T13:51:40.584Z,7.66
2023-04-08T13:54:11.645Z,7.72
2023-04-08T13:56:42.635Z,7.76
2023-04-08T13:59:13.533Z,7.77
2023-04-08T14:01:43.142Z,7.79
2023-04-08T14:04:12.688Z,7.66
2023-04-08T14:06:43.897Z,7.57
2023-04-08T14:09:14.759Z,7.54
2023-04-08T14:11:44.420Z,7.54
2023-04-08T14:14:15.837Z,7.52
2023-04-08T14:16:49.615Z,7.65
2023-04-08T14:19:20.838Z,8.06
2023-04-08T14:21:52.012Z,8.96
2023-04-08T14:24:23.119Z,9.63
2023-04-08T14:26:54.349Z,10.07
2023-04-08T14:29:27.304Z,10.37
2023-04-08T14:31:59.075Z,10.60
2023-04-08T14:34:30.714Z,10.75
2023-04-08T14:37:01.545Z,10.87
2023-04-08T14:39:30.883Z,10.81
2023-04-08T14:42:01.924Z,10.84
2023-04-08T14:44:33.008Z,10.90
2023-04-08T14:47:04.018Z,10.88
2023-04-08T14:49:35.133Z,10.97
2023-04-08T14:52:06.287Z,11.14
2023-04-08T14:54:37.455Z,11.22
2023-04-08T14:57:08.526Z,11.21
2023-04-08T14:59:39.515Z,10.98
2023-04-08T15:02:10.618Z,10.74
2023-04-08T15:04:41.760Z,10.52
2023-04-08T15:07:12.905Z,10.36
2023-04-08T15:09:43.982Z,10.24
2023-04-08T15:12:14.903Z,10.19
2023-04-08T15:14:46.098Z,10.01
2023-04-08T15:17:16.979Z,9.81
2023-04-08T15:19:48.026Z,9.71
2023-04-08T15:22:19.153Z,9.62
2023-04-08T15:24:50.406Z,9.51
2023-04-08T15:27:21.692Z,9.44
2023-04-08T15:29:52.889Z,9.26
2023-04-08T15:32:24.277Z,9.17
2023-04-08T15:34:55.365Z,9.07
2023-04-08T15:37:26.396Z,9.07
2023-04-08T15:39:57.448Z,9.12
2023-04-08T15:42:28.589Z,9.09
2023-04-08T15:44:59.739Z,9.06
2023-04-08T15:47:30.864Z,9.09
2023-04-08T15:50:01.831Z,9.08
2023-04-08T15:52:35.566Z,8.94
2023-04-08T15:55:07.920Z,8.79
2023-04-08T15:57:39.321Z,8.58
2023-04-08T16:00:16.715Z,8.44
2023-04-08T16:02:48.141Z,8.34
2023-04-08T16:05:19.613Z,8.30
2023-04-08T16:07:50.653Z,8.29
2023-04-08T16:10:21.754Z,8.39
2023-04-08T16:12:53.239Z,8.44
2023-04-08T16:15:24.202Z,8.56
2023-04-08T16:17:55.591Z,8.71
2023-04-08T16:20:27.436Z,8.85
2023-04-08T16:22:58.554Z,9.04
2023-04-08T16:25:29.742Z,9.18
2023-04-08T16:28:00.937Z,9.19
2023-04-08T16:30:32.017Z,9.13
2023-04-08T16:33:03.451Z,9.07
2023-04-08T16:35:35.765Z,8.98
2023-04-08T16:38:06.974Z,8.72
2023-04-08T16:40:39.250Z,8.44
2023-04-08T16:43:10.922Z,8.31
2023-04-08T16:45:43.051Z,8.28
2023-04-08T16:48:14.212Z,8.30
2023-04-08T16:50:45.216Z,8.35
2023-04-08T16:53:16.386Z,8.36
2023-04-08T16:55:48.564Z,8.36
2023-04-08T16:58:19.561Z,8.29
2023-04-08T17:00:51.003Z,8.31
2023-04-08T17:03:22.395Z,8.29
2023-04-08T17:05:53.613Z,8.27
2023-04-08T17:08:26.077Z,8.22
2023-04-08T17:11:05.586Z,8.17
2023-04-08T17:13:36.859Z,8.02
2023-04-08T17:16:12.183Z,7.83
2023-04-08T17:18:43.447Z,7.61
2023-04-08T17:21:14.132Z,7.39
2023-04-08T17:23:45.368Z,7.20
2023-04-08T17:26:16.468Z,7.02
2023-04-08T17:28:48.622Z,6.85
2023-04-08T17:31:19.732Z,6.71
2023-04-08T17:33:51.364Z,6.60
2023-04-08T17:36:22.657Z,6.51
2023-04-08T17:38:53.826Z,6.41
2023-04-08T17:41:37.954Z,6.28
2023-04-08T17:44:10.544Z,6.15
2023-04-08T17:46:39.975Z,6.04
2023-04-08T17:49:14.186Z,5.96
2023-04-08T17:51:45.422Z,5.91
2023-04-08T17:54:17.201Z,5.88
2023-04-08T17:56:49.555Z,5.83
2023-04-08T17:59:20.822Z,5.81
2023-04-08T18:01:52.094Z,5.78
2023-04-08T18:04:23.939Z,5.77
2023-04-08T18:06:55.033Z,5.77
2023-04-08T18:09:24.489Z,5.76
2023-04-08T18:11:55.498Z,5.77
2023-04-08T18:14:25.088Z,5.78
2023-04-08T18:16:56.052Z,5.76
2023-04-08T18:19:27.374Z,5.74
2023-04-08T18:21:58.643Z,5.70
2023-04-08T18:24:29.802Z,5.66
2023-04-08T18:27:04.540Z,5.62
2023-04-08T18:29:36.166Z,5.55
2023-04-08T18:32:07.657Z,5.49
2023-04-08T18:34:40.325Z,5.45
2023-04-08T18:37:12.045Z,5.40
2023-04-08T18:39:43.791Z,5.36
2023-04-08T18:42:15.562Z,5.30
2023-04-08T18:44:49.018Z,5.21
2023-04-08T18:47:20.171Z,5.09
2023-04-08T18:49:51.494Z,4.99
2023-04-08T18:52:22.378Z,4.93
2023-04-08T18:54:53.497Z,4.91
2023-04-08T18:57:24.780Z,4.89
2023-04-08T18:59:56.393Z,4.85
2023-04-08T19:02:28.080Z,4.81
2023-04-08T19:04:59.346Z,4.76
2023-04-08T19:07:30.682Z,4.66
2023-04-08T19:10:02.080Z,4.56
2023-04-08T19:12:33.633Z,4.51
2023-04-08T19:15:05.554Z,4.50
2023-04-08T19:17:36.747Z,4.49
2023-04-08T19:20:07.340Z,4.47
2023-04-08T19:22:38.817Z,4.41
2023-04-08T19:25:11.117Z,4.39
2023-04-08T19:27:42.902Z,4.39
2023-04-08T19:30:14.652Z,4.36
2023-04-08T19:32:46.974Z,4.33
2023-04-08T19:35:18.344Z,4.29
2023-04-08T19:37:47.878Z,4.22
2023-04-08T19:40:19.842Z,4.17
2023-04-08T19:42:51.027Z,4.16
2023-04-08T19:45:22.222Z,4.15
2023-04-08T19:47:54.820Z,4.17
2023-04-08T19:50:27.793Z,4.18
2023-04-08T19:52:58.922Z,4.21
2023-04-08T19:55:28.523Z,4.23
2023-04-08T19:57:59.723Z,4.22
2023-04-08T20:00:32.701Z,4.23
2023-04-08T20:03:04.339Z,4.24
2023-04-08T20:05:35.824Z,4.25
2023-04-08T20:08:06.923Z,4.25
2023-04-08T20:10:38.187Z,4.25
2023-04-08T20:13:09.385Z,4.25
2023-04-08T20:15:38.914Z,4.25
2023-04-08T20:18:10.149Z,4.24
2023-04-08T20:20:41.466Z,4.25
2023-04-08T20:23:13.759Z,4.26
2023-04-08T20:25:44.623Z,4.25
2023-04-08T20:28:15.868Z,4.18
2023-04-08T20:30:48.194Z,4.13
2023-04-08T20:33:19.579Z,4.11
2023-04-08T20:35:53.324Z,4.11
2023-04-08T20:38:25.004Z,4.12
2023-04-08T20:40:56.225Z,4.12
2023-04-08T20:43:25.636Z,4.13
2023-04-08T20:45:56.577Z,4.12
2023-04-08T20:48:29.449Z,4.15
2023-04-08T20:51:00.643Z,4.18
2023-04-08T20:53:32.117Z,4.22
2023-04-08T20:56:01.704Z,4.25
2023-04-08T20:58:33.388Z,4.26
2023-04-08T21:01:04.497Z,4.27
2023-04-08T21:03:34.112Z,4.33
2023-04-08T21:06:05.658Z,4.36
2023-04-08T21:08:36.772Z,4.43
2023-04-08T21:11:06.186Z,4.50
2023-04-08T21:13:37.319Z,4.54
2023-04-08T21:16:09.720Z,4.59
2023-04-08T21:18:42.121Z,4.65
2023-04-08T21:21:13.905Z,4.71
2023-04-08T21:23:45.036Z,4.73
2023-04-08T21:26:14.677Z,4.77
2023-04-08T21:28:46.037Z,4.80
2023-04-08T21:31:17.874Z,4.85
2023-04-08T21:33:49.532Z,4.89
2023-04-08T21:36:20.614Z,4.96
2023-04-08T21:38:50.577Z,4.99
2023-04-08T21:41:22.057Z,5.04
2023-04-08T21:43:53.826Z,5.11
2023-04-08T21:46:24.985Z,5.18
2023-04-08T21:48:56.017Z,5.25
2023-04-08T21:51:27.064Z,5.34
2023-04-08T21:53:58.304Z,5.40
2023-04-08T21:56:29.223Z,5.47
2023-04-08T21:59:00.289Z,5.51
2023-04-08T22:01:31.849Z,5.55
2023-04-08T22:04:03.577Z,5.58
2023-04-08T22:06:35.149Z,5.62
2023-04-08T22:09:07.121Z,5.65
2023-04-08T22:11:38.095Z,5.68
2023-04-08T22:14:09.203Z,5.71
2023-04-08T22:16:40.528Z,5.73
2023-04-08T22:19:11.793Z,5.76
2023-04-08T22:21:41.269Z,5.78
2023-04-08T22:24:12.769Z,5.78
2023-04-08T22:26:43.693Z,5.80
2023-04-08T22:29:14.980Z,5.78
2023-04-08T22:31:46.479Z,5.78
2023-04-08T22:34:17.635Z,5.77
2023-04-08T22:36:49.072Z,5.78
2023-04-08T22:39:20.487Z,5.81
2023-04-08T22:41:51.782Z,5.84
2023-04-08T22:44:23.231Z,5.86
2023-04-08T22:46:54.321Z,5.85
2023-04-08T22:49:25.624Z,5.84
2023-04-08T22:51:56.881Z,5.83
2023-04-08T22:54:28.305Z,5.81
2023-04-08T22:56:59.168Z,5.74
2023-04-08T22:59:28.750Z,5.68
2023-04-08T23:02:00.130Z,5.64
2023-04-08T23:04:31.319Z,5.63
2023-04-08T23:07:02.608Z,5.62
2023-04-08T23:09:32.415Z,5.59
2023-04-08T23:12:03.582Z,5.56
2023-04-08T23:14:34.658Z,5.53
2023-04-08T23:17:06.382Z,5.53
2023-04-08T23:19:37.539Z,5.52
2023-04-08T23:22:06.991Z,5.54
2023-04-08T23:24:38.671Z,5.50
2023-04-08T23:27:10.010Z,5.49
2023-04-08T23:29:39.368Z,5.48
2023-04-08T23:32:10.365Z,5.45
2023-04-08T23:34:41.364Z,5.45
2023-04-08T23:37:12.334Z,5.44
2023-04-08T23:39:41.808Z,5.44
2023-04-08T23:42:12.974Z,5.42
2023-04-08T23:44:43.923Z,5.42
2023-04-08T23:47:14.902Z,5.43
2023-04-08T23:49:46.285Z,5.44
2023-04-08T23:52:15.853Z,5.44
2023-04-08T23:54:50.545Z,5.43
2023-04-08T23:57:21.491Z,5.43
2023-04-08T23:59:52.351Z,5.44
